« Back
NWS Peachtree City, Ga » Text Product » ATL Terminal Aerodrome Forecast


Printer-friendly Version
Current Version              Previous Versions:   1  2  3  4  5  6  7  8  9  

Terminal Aerodrome Forecast

818
FTUS42 KFFC 231639 AAC
TAFATL
TAF AMD
KATL 231639Z 2317/2418 10012G20KT 4SM -SHRA BR OVC004
      TEMPO 2317/2319 2SM TSRA BR OVC004CB
     FM232300 15010G20KT 6SM BR VCSH OVC009
     FM240500 19010KT 4SM BR OVC007
     FM241400 24012G19KT P6SM BKN015 OVC030=

USA.gov is the U.S. government's official web portal to all federal, state and local government web resources and services.